Terminal Aerodrome Forecast
Issued by NWS Atlanta, GA

Home | Current Version | Previous Version | Text Only | Print | Product List | Glossary On
Versions: 1 2 3 4 5 6 7 8 9 10 11 12 13 14 15 16 17 18 19 20 21 22 23 24 25 26 27 28 29 30 31 32 33 34 35 36 37 38 39 40 41 42 43
000
FTUS42 KFFC 181600 AAB
TAFATL
TAF AMD
KATL 181600Z 1816/1918 09007KT P6SM OVC010
     FM181800 11008KT P6SM VCSH BKN022
     FM190300 12006KT P6SM -RA BKN015
     FM190600 13006KT 3SM -SHRA BR BKN006 OVC012
     FM191400 19010KT 6SM -SHRA BKN010 OVC025 PROB30 1914/1918 3SM
      TSRA BKN010CB OVC012=

USA.gov is the U.S. government's official web portal to all federal, state and local government web resources and services.